sensor_id;sensor_type;location;lat;lon;timestamp;pressure;altitude;pressure_sealevel;temperature;humidity
25759;BME280;13604;52.496;13.456;2023-05-02T00:00:11;100846.13;;;12.80;44.49
25759;BME280;13604;52.496;13.456;2023-05-02T00:02:37;100903.19;;;13.14;43.99
25759;BME280;13604;52.496;13.456;2023-05-02T00:05:02;100863.94;;;12.90;43.70
25759;BME280;13604;52.496;13.456;2023-05-02T00:07:27;100864.56;;;12.84;43.93
25759;BME280;13604;52.496;13.456;2023-05-02T00:09:53;100869.72;;;12.81;44.21
25759;BME280;13604;52.496;13.456;2023-05-02T00:12:18;100873.09;;;12.79;44.12
25759;BME280;13604;52.496;13.456;2023-05-02T00:14:44;100861.69;;;12.54;44.86
25759;BME280;13604;52.496;13.456;2023-05-02T00:17:15;100838.47;;;12.39;44.68
25759;BME280;13604;52.496;13.456;2023-05-02T00:19:41;100860.44;;;12.44;45.32
25759;BME280;13604;52.496;13.456;2023-05-02T00:22:06;100831.56;;;12.19;45.04
25759;BME280;13604;52.496;13.456;2023-05-02T00:24:32;100895.00;;;12.37;45.41
25759;BME280;13604;52.496;13.456;2023-05-02T00:26:57;100892.78;;;12.48;45.22
25759;BME280;13604;52.496;13.456;2023-05-02T00:29:23;100879.25;;;12.36;44.76
25759;BME280;13604;52.496;13.456;2023-05-02T00:31:48;100873.78;;;12.29;44.54
25759;BME280;13604;52.496;13.456;2023-05-02T00:34:13;100872.19;;;12.33;45.46
25759;BME280;13604;52.496;13.456;2023-05-02T00:36:39;100882.06;;;12.40;44.52
25759;BME280;13604;52.496;13.456;2023-05-02T00:39:04;100868.94;;;12.39;43.93
25759;BME280;13604;52.496;13.456;2023-05-02T00:41:29;100817.50;;;12.15;44.76
25759;BME280;13604;52.496;13.456;2023-05-02T00:43:55;100851.34;;;12.34;43.97
25759;BME280;13604;52.496;13.456;2023-05-02T00:46:20;100819.97;;;12.12;44.07
25759;BME280;13604;52.496;13.456;2023-05-02T00:48:45;100875.97;;;12.41;44.66
25759;BME280;13604;52.496;13.456;2023-05-02T00:51:11;100820.38;;;12.00;45.55
25759;BME280;13604;52.496;13.456;2023-05-02T00:53:37;100865.88;;;12.28;44.65
25759;BME280;13604;52.496;13.456;2023-05-02T00:56:03;100796.63;;;11.94;46.08
25759;BME280;13604;52.496;13.456;2023-05-02T00:58:28;100894.53;;;12.47;45.68
25759;BME280;13604;52.496;13.456;2023-05-02T01:01:22;100898.88;;;12.47;46.00
25759;BME280;13604;52.496;13.456;2023-05-02T01:04:04;100877.47;;;12.34;46.00
25759;BME280;13604;52.496;13.456;2023-05-02T01:11:56;100864.38;;;12.12;47.49
25759;BME280;13604;52.496;13.456;2023-05-02T01:14:28;100905.31;;;12.34;48.36
25759;BME280;13604;52.496;13.456;2023-05-02T01:16:55;100865.69;;;12.23;48.37
25759;BME280;13604;52.496;13.456;2023-05-02T01:19:25;100861.88;;;12.15;49.10
25759;BME280;13604;52.496;13.456;2023-05-02T01:21:54;100875.19;;;12.21;49.47
25759;BME280;13604;52.496;13.456;2023-05-02T01:24:36;100879.41;;;12.18;49.82
25759;BME280;13604;52.496;13.456;2023-05-02T01:27:32;100899.63;;;12.23;50.61
25759;BME280;13604;52.496;13.456;2023-05-02T01:29:59;100894.28;;;12.20;51.12
25759;BME280;13604;52.496;13.456;2023-05-02T01:32:26;100910.22;;;12.26;51.01
25759;BME280;13604;52.496;13.456;2023-05-02T01:34:55;100894.94;;;12.14;51.82
25759;BME280;13604;52.496;13.456;2023-05-02T01:37:22;100911.28;;;12.31;51.68
25759;BME280;13604;52.496;13.456;2023-05-02T01:39:48;100883.69;;;12.15;51.71
25759;BME280;13604;52.496;13.456;2023-05-02T01:42:15;100901.81;;;12.33;52.20
25759;BME280;13604;52.496;13.456;2023-05-02T01:44:42;100845.59;;;12.00;52.22
25759;BME280;13604;52.496;13.456;2023-05-02T01:47:09;100925.88;;;12.47;52.29
25759;BME280;13604;52.496;13.456;2023-05-02T01:49:35;100905.84;;;12.25;52.36
25759;BME280;13604;52.496;13.456;2023-05-02T01:52:04;100924.59;;;12.38;52.78
25759;BME280;13604;52.496;13.456;2023-05-02T01:54:34;100907.47;;;12.23;53.06
25759;BME280;13604;52.496;13.456;2023-05-02T01:57:01;100900.03;;;12.11;53.25
25759;BME280;13604;52.496;13.456;2023-05-02T01:59:30;100918.81;;;12.24;53.66
25759;BME280;13604;52.496;13.456;2023-05-02T02:01:58;100826.53;;;11.60;54.41
25759;BME280;13604;52.496;13.456;2023-05-02T02:04:25;100925.63;;;12.20;54.16
25759;BME280;13604;52.496;13.456;2023-05-02T02:07:08;100867.97;;;11.73;54.22
25759;BME280;13604;52.496;13.456;2023-05-02T02:09:33;100856.38;;;11.67;55.11
25759;BME280;13604;52.496;13.456;2023-05-02T02:12:04;100874.97;;;11.74;55.11
25759;BME280;13604;52.496;13.456;2023-05-02T02:14:34;100915.19;;;11.99;54.75
25759;BME280;13604;52.496;13.456;2023-05-02T02:17:01;100918.69;;;12.00;55.38
25759;BME280;13604;52.496;13.456;2023-05-02T02:19:29;100931.81;;;12.01;55.81
25759;BME280;13604;52.496;13.456;2023-05-02T02:21:57;100927.53;;;11.84;55.64
25759;BME280;13604;52.496;13.456;2023-05-02T02:24:22;100905.38;;;11.74;55.95
25759;BME280;13604;52.496;13.456;2023-05-02T02:26:48;100903.84;;;11.58;56.84
25759;BME280;13604;52.496;13.456;2023-05-02T02:29:14;100918.44;;;11.54;56.89
25759;BME280;13604;52.496;13.456;2023-05-02T02:31:40;100935.88;;;11.55;57.57
25759;BME280;13604;52.496;13.456;2023-05-02T02:34:05;100921.97;;;11.35;57.58
25759;BME280;13604;52.496;13.456;2023-05-02T02:37:04;100930.06;;;11.22;58.37
25759;BME280;13604;52.496;13.456;2023-05-02T02:39:46;100973.09;;;11.32;58.24
25759;BME280;13604;52.496;13.456;2023-05-02T02:45:11;100948.69;;;11.12;59.26
25759;BME280;13604;52.496;13.456;2023-05-02T02:47:45;100980.19;;;11.16;59.28
25759;BME280;13604;52.496;13.456;2023-05-02T02:50:23;100978.34;;;11.14;59.14
25759;BME280;13604;52.496;13.456;2023-05-02T02:55:56;100951.38;;;10.76;59.97
25759;BME280;13604;52.496;13.456;2023-05-02T02:58:42;100991.41;;;10.78;60.61
25759;BME280;13604;52.496;13.456;2023-05-02T03:01:14;100951.97;;;10.52;60.98
25759;BME280;13604;52.496;13.456;2023-05-02T03:03:42;100986.34;;;10.63;60.95
25759;BME280;13604;52.496;13.456;2023-05-02T03:06:08;100998.53;;;10.64;61.24
25759;BME280;13604;52.496;13.456;2023-05-02T03:08:40;101000.94;;;10.59;61.58
25759;BME280;13604;52.496;13.456;2023-05-02T03:11:06;100959.56;;;10.31;61.20
25759;BME280;13604;52.496;13.456;2023-05-02T03:13:32;100966.44;;;10.29;61.54
25759;BME280;13604;52.496;13.456;2023-05-02T03:16:26;101016.03;;;10.48;61.78
25759;BME280;13604;52.496;13.456;2023-05-02T03:18:53;100961.25;;;10.12;61.76
25759;BME280;13604;52.496;13.456;2023-05-02T03:21:18;101001.81;;;10.25;61.94
25759;BME280;13604;52.496;13.456;2023-05-02T03:23:44;101044.44;;;10.44;61.99
25759;BME280;13604;52.496;13.456;2023-05-02T03:26:09;101014.28;;;10.14;62.63
25759;BME280;13604;52.496;13.456;2023-05-02T03:28:35;101034.78;;;10.25;62.94
25759;BME280;13604;52.496;13.456;2023-05-02T03:31:00;100955.66;;;9.87;62.77
25759;BME280;13604;52.496;13.456;2023-05-02T03:33:25;101032.41;;;10.13;63.47
25759;BME280;13604;52.496;13.456;2023-05-02T03:35:51;101055.53;;;10.07;63.45
25759;BME280;13604;52.496;13.456;2023-05-02T03:38:16;101033.88;;;10.08;63.90
25759;BME280;13604;52.496;13.456;2023-05-02T03:40:41;100927.16;;;9.23;63.98
25759;BME280;13604;52.496;13.456;2023-05-02T03:43:07;101088.06;;;10.15;64.70
25759;BME280;13604;52.496;13.456;2023-05-02T03:45:33;101039.28;;;9.94;64.73
25759;BME280;13604;52.496;13.456;2023-05-02T03:47:58;101063.44;;;10.08;65.32
25759;BME280;13604;52.496;13.456;2023-05-02T03:50:24;100989.78;;;9.60;65.00
25759;BME280;13604;52.496;13.456;2023-05-02T03:52:49;101044.97;;;9.87;65.73
25759;BME280;13604;52.496;13.456;2023-05-02T03:55:14;101061.88;;;9.95;65.88
25759;BME280;13604;52.496;13.456;2023-05-02T03:57:40;101039.53;;;9.83;66.05
25759;BME280;13604;52.496;13.456;2023-05-02T04:00:06;101074.91;;;9.95;66.25
25759;BME280;13604;52.496;13.456;2023-05-02T04:02:31;101081.31;;;10.02;66.55
25759;BME280;13604;52.496;13.456;2023-05-02T04:04:56;101040.03;;;9.75;66.32
25759;BME280;13604;52.496;13.456;2023-05-02T04:07:22;101006.69;;;9.52;66.48
25759;BME280;13604;52.496;13.456;2023-05-02T04:09:50;100980.06;;;9.39;67.31
25759;BME280;13604;52.496;13.456;2023-05-02T04:12:16;101005.97;;;9.54;67.10
25759;BME280;13604;52.496;13.456;2023-05-02T04:14:41;101073.19;;;9.80;67.23
25759;BME280;13604;52.496;13.456;2023-05-02T04:17:06;101064.81;;;9.85;67.49
25759;BME280;13604;52.496;13.456;2023-05-02T04:19:33;101103.34;;;10.09;67.87
25759;BME280;13604;52.496;13.456;2023-05-02T04:21:58;101107.16;;;9.99;67.47
25759;BME280;13604;52.496;13.456;2023-05-02T04:24:24;101126.84;;;10.10;68.86
25759;BME280;13604;52.496;13.456;2023-05-02T04:26:49;101112.72;;;10.05;68.72
25759;BME280;13604;52.496;13.456;2023-05-02T04:29:15;100998.34;;;9.41;68.15
25759;BME280;13604;52.496;13.456;2023-05-02T04:31:41;101158.16;;;10.12;68.92
25759;BME280;13604;52.496;13.456;2023-05-02T04:34:06;101123.28;;;10.08;68.30
25759;BME280;13604;52.496;13.456;2023-05-02T04:36:31;101073.84;;;9.92;68.36
25759;BME280;13604;52.496;13.456;2023-05-02T04:38:58;101117.00;;;10.21;68.06
25759;BME280;13604;52.496;13.456;2023-05-02T04:41:23;101135.03;;;10.33;67.74
25759;BME280;13604;52.496;13.456;2023-05-02T04:43:48;101137.72;;;10.35;67.02
25759;BME280;13604;52.496;13.456;2023-05-02T04:46:16;101108.41;;;10.39;67.30
25759;BME280;13604;52.496;13.456;2023-05-02T04:48:42;101099.19;;;10.45;66.80
25759;BME280;13604;52.496;13.456;2023-05-02T04:51:08;101103.00;;;10.52;66.77
25759;BME280;13604;52.496;13.456;2023-05-02T04:53:34;101158.22;;;10.79;66.13
25759;BME280;13604;52.496;13.456;2023-05-02T04:55:59;101098.75;;;10.36;66.23
25759;BME280;13604;52.496;13.456;2023-05-02T04:58:24;101141.63;;;10.77;65.88
25759;BME280;13604;52.496;13.456;2023-05-02T05:00:50;101139.09;;;10.97;65.02
25759;BME280;13604;52.496;13.456;2023-05-02T05:03:15;101177.34;;;11.14;65.26
25759;BME280;13604;52.496;13.456;2023-05-02T05:05:41;101178.38;;;11.18;64.27
25759;BME280;13604;52.496;13.456;2023-05-02T05:08:07;101137.03;;;10.90;64.14
25759;BME280;13604;52.496;13.456;2023-05-02T05:10:32;101136.72;;;10.83;64.42
25759;BME280;13604;52.496;13.456;2023-05-02T05:12:57;101165.91;;;10.94;64.34
25759;BME280;13604;52.496;13.456;2023-05-02T05:15:22;101113.03;;;10.79;65.08
25759;BME280;13604;52.496;13.456;2023-05-02T05:17:50;101148.56;;;10.95;63.97
25759;BME280;13604;52.496;13.456;2023-05-02T05:20:15;101177.94;;;11.09;65.06
25759;BME280;13604;52.496;13.456;2023-05-02T05:22:41;101193.41;;;11.05;65.09
25759;BME280;13604;52.496;13.456;2023-05-02T05:25:07;101161.00;;;10.82;65.09
25759;BME280;13604;52.496;13.456;2023-05-02T05:27:33;101197.34;;;10.97;65.76
25759;BME280;13604;52.496;13.456;2023-05-02T05:29:59;101064.66;;;10.15;64.92
25759;BME280;13604;52.496;13.456;2023-05-02T05:32:24;101216.47;;;10.98;65.60
25759;BME280;13604;52.496;13.456;2023-05-02T05:34:53;101171.81;;;10.74;65.55
25759;BME280;13604;52.496;13.456;2023-05-02T05:37:19;101212.94;;;11.14;65.48
25759;BME280;13604;52.496;13.456;2023-05-02T05:39:44;101209.50;;;11.15;65.48
25759;BME280;13604;52.496;13.456;2023-05-02T05:42:10;101112.53;;;10.52;64.89
25759;BME280;13604;52.496;13.456;2023-05-02T05:44:36;101103.94;;;10.71;64.16
25759;BME280;13604;52.496;13.456;2023-05-02T05:47:02;101222.22;;;11.43;64.65
25759;BME280;13604;52.496;13.456;2023-05-02T05:49:27;101108.34;;;10.90;64.59
25759;BME280;13604;52.496;13.456;2023-05-02T05:51:53;101102.19;;;10.88;64.50
25759;BME280;13604;52.496;13.456;2023-05-02T05:54:18;101250.63;;;11.73;64.49
25759;BME280;13604;52.496;13.456;2023-05-02T05:56:44;101214.19;;;11.56;63.97
25759;BME280;13604;52.496;13.456;2023-05-02T05:59:10;101261.28;;;11.95;64.33
25759;BME280;13604;52.496;13.456;2023-05-02T06:01:35;101168.81;;;11.35;64.46
25759;BME280;13604;52.496;13.456;2023-05-02T06:04:00;101258.31;;;12.06;63.63
25759;BME280;13604;52.496;13.456;2023-05-02T06:06:27;101264.03;;;11.99;63.57
25759;BME280;13604;52.496;13.456;2023-05-02T06:08:53;101247.88;;;11.70;64.17
25759;BME280;13604;52.496;13.456;2023-05-02T06:11:18;101239.50;;;11.59;64.92
25759;BME280;13604;52.496;13.456;2023-05-02T06:13:43;101290.44;;;11.87;65.23
25759;BME280;13604;52.496;13.456;2023-05-02T06:16:09;101248.16;;;11.58;65.11
25759;BME280;13604;52.496;13.456;2023-05-02T06:18:34;101301.00;;;11.72;65.78
25759;BME280;13604;52.496;13.456;2023-05-02T06:21:03;101312.34;;;11.90;65.97
25759;BME280;13604;52.496;13.456;2023-05-02T06:23:29;101307.38;;;11.95;65.42
25759;BME280;13604;52.496;13.456;2023-05-02T06:25:58;101283.81;;;11.93;66.02
25759;BME280;13604;52.496;13.456;2023-05-02T06:28:23;101289.19;;;12.14;65.13
25759;BME280;13604;52.496;13.456;2023-05-02T06:31:04;101291.91;;;12.36;64.69
25759;BME280;13604;52.496;13.456;2023-05-02T06:33:30;101307.31;;;12.49;64.47
25759;BME280;13604;52.496;13.456;2023-05-02T06:35:56;101280.69;;;12.38;65.11
25759;BME280;13604;52.496;13.456;2023-05-02T06:38:22;101320.69;;;12.75;64.60
25759;BME280;13604;52.496;13.456;2023-05-02T06:40:47;101244.28;;;12.41;63.83
25759;BME280;13604;52.496;13.456;2023-05-02T06:43:13;101194.56;;;12.20;63.98
25759;BME280;13604;52.496;13.456;2023-05-02T06:45:39;101303.97;;;12.91;63.67
25759;BME280;13604;52.496;13.456;2023-05-02T06:48:05;101291.38;;;13.01;63.98
25759;BME280;13604;52.496;13.456;2023-05-02T06:50:31;101321.22;;;13.26;63.46
25759;BME280;13604;52.496;13.456;2023-05-02T06:52:56;101229.22;;;12.75;62.91
25759;BME280;13604;52.496;13.456;2023-05-02T06:55:22;101153.56;;;12.37;62.69
25759;BME280;13604;52.496;13.456;2023-05-02T06:57:48;101357.84;;;13.46;63.74
25759;BME280;13604;52.496;13.456;2023-05-02T07:00:15;101205.22;;;12.64;63.26
25759;BME280;13604;52.496;13.456;2023-05-02T07:02:41;101318.34;;;13.00;64.25
25759;BME280;13604;52.496;13.456;2023-05-02T07:05:06;101340.56;;;12.91;64.46
25759;BME280;13604;52.496;13.456;2023-05-02T07:07:32;101292.91;;;12.57;65.16
25759;BME280;13604;52.496;13.456;2023-05-02T07:09:57;101255.78;;;12.27;65.09
25759;BME280;13604;52.496;13.456;2023-05-02T07:12:23;101394.13;;;12.81;66.13
25759;BME280;13604;52.496;13.456;2023-05-02T07:14:48;101346.88;;;12.76;65.61
25759;BME280;13604;52.496;13.456;2023-05-02T07:17:13;101408.66;;;13.51;64.27
25759;BME280;13604;52.496;13.456;2023-05-02T07:19:39;101398.47;;;13.99;62.21
25759;BME280;13604;52.496;13.456;2023-05-02T07:22:05;101397.25;;;13.91;61.85
25759;BME280;13604;52.496;13.456;2023-05-02T07:24:31;101349.66;;;13.78;61.74
25759;BME280;13604;52.496;13.456;2023-05-02T07:26:56;101398.22;;;14.14;61.54
25759;BME280;13604;52.496;13.456;2023-05-02T07:29:21;101364.22;;;14.15;61.23
25759;BME280;13604;52.496;13.456;2023-05-02T07:31:47;101353.84;;;14.40;60.47
25759;BME280;13604;52.496;13.456;2023-05-02T07:34:12;101398.53;;;14.88;60.10
25759;BME280;13604;52.496;13.456;2023-05-02T07:36:37;101333.19;;;14.25;59.58
25759;BME280;13604;52.496;13.456;2023-05-02T07:39:03;101412.75;;;14.49;59.97
25759;BME280;13604;52.496;13.456;2023-05-02T07:41:28;101395.41;;;14.09;61.40
25759;BME280;13604;52.496;13.456;2023-05-02T07:43:53;101401.34;;;14.05;61.75
25759;BME280;13604;52.496;13.456;2023-05-02T07:46:19;101402.91;;;14.00;62.37
25759;BME280;13604;52.496;13.456;2023-05-02T07:48:44;101387.19;;;13.79;63.04
25759;BME280;13604;52.496;13.456;2023-05-02T07:51:10;101431.09;;;13.86;63.23
25759;BME280;13604;52.496;13.456;2023-05-02T07:53:35;101430.63;;;13.95;62.77
25759;BME280;13604;52.496;13.456;2023-05-02T07:56:04;101394.31;;;13.83;62.60
25759;BME280;13604;52.496;13.456;2023-05-02T07:58:31;101428.13;;;13.57;63.36
25759;BME280;13604;52.496;13.456;2023-05-02T08:00:56;101428.06;;;13.56;64.72
25759;BME280;13604;52.496;13.456;2023-05-02T08:03:21;101432.81;;;13.45;65.16
25759;BME280;13604;52.496;13.456;2023-05-02T08:05:47;101426.63;;;13.43;65.08
25759;BME280;13604;52.496;13.456;2023-05-02T08:08:12;101396.28;;;13.29;65.01
25759;BME280;13604;52.496;13.456;2023-05-02T08:10:38;101397.63;;;12.99;66.09
25759;BME280;13604;52.496;13.456;2023-05-02T08:13:07;101290.19;;;12.36;65.80
25759;BME280;13604;52.496;13.456;2023-05-02T08:15:33;101390.59;;;12.98;66.24
25759;BME280;13604;52.496;13.456;2023-05-02T08:17:58;101356.44;;;12.76;66.70
25759;BME280;13604;52.496;13.456;2023-05-02T08:20:24;101302.16;;;12.50;66.52
25759;BME280;13604;52.496;13.456;2023-05-02T08:22:49;101436.63;;;13.32;66.26
25759;BME280;13604;52.496;13.456;2023-05-02T08:25:15;101275.72;;;12.62;66.16
25759;BME280;13604;52.496;13.456;2023-05-02T08:27:40;101336.38;;;13.33;64.49
25759;BME280;13604;52.496;13.456;2023-05-02T08:30:06;101322.84;;;13.43;63.10
25759;BME280;13604;52.496;13.456;2023-05-02T08:32:35;101357.28;;;13.53;63.19
25759;BME280;13604;52.496;13.456;2023-05-02T08:35:00;101411.13;;;14.09;62.50
25759;BME280;13604;52.496;13.456;2023-05-02T08:37:26;101466.88;;;14.49;61.90
25759;BME280;13604;52.496;13.456;2023-05-02T08:39:52;101350.97;;;14.33;60.97
25759;BME280;13604;52.496;13.456;2023-05-02T08:42:17;101375.75;;;14.42;59.66
25759;BME280;13604;52.496;13.456;2023-05-02T08:44:47;101359.59;;;14.08;60.52
25759;BME280;13604;52.496;13.456;2023-05-02T08:47:14;101432.00;;;14.08;61.72
25759;BME280;13604;52.496;13.456;2023-05-02T08:49:39;101446.75;;;14.06;62.65
25759;BME280;13604;52.496;13.456;2023-05-02T08:52:07;101379.03;;;13.52;62.76
25759;BME280;13604;52.496;13.456;2023-05-02T08:54:36;101438.97;;;13.86;63.10
25759;BME280;13604;52.496;13.456;2023-05-02T08:57:02;101456.44;;;14.28;62.50
25759;BME280;13604;52.496;13.456;2023-05-02T08:59:28;101465.25;;;14.72;60.67
25759;BME280;13604;52.496;13.456;2023-05-02T09:02:04;101483.91;;;15.02;59.98
25759;BME280;13604;52.496;13.456;2023-05-02T09:04:40;101475.63;;;15.38;59.27
25759;BME280;13604;52.496;13.456;2023-05-02T09:07:06;101472.78;;;15.32;58.78
25759;BME280;13604;52.496;13.456;2023-05-02T09:09:32;101509.50;;;15.32;58.98
25759;BME280;13604;52.496;13.456;2023-05-02T09:11:58;101517.72;;;14.73;61.08
25759;BME280;13604;52.496;13.456;2023-05-02T09:14:23;101535.22;;;14.53;62.09
25759;BME280;13604;52.496;13.456;2023-05-02T09:16:49;101514.69;;;14.22;62.88
25759;BME280;13604;52.496;13.456;2023-05-02T09:19:22;101528.81;;;14.05;63.91
25759;BME280;13604;52.496;13.456;2023-05-02T09:21:49;101538.06;;;13.96;64.24
25759;BME280;13604;52.496;13.456;2023-05-02T09:24:16;101542.78;;;14.05;64.48
25759;BME280;13604;52.496;13.456;2023-05-02T09:26:43;101546.97;;;14.21;63.98
25759;BME280;13604;52.496;13.456;2023-05-02T09:29:20;101551.56;;;14.67;63.41
25759;BME280;13604;52.496;13.456;2023-05-02T09:31:46;101558.09;;;15.00;61.70
25759;BME280;13604;52.496;13.456;2023-05-02T09:34:13;101496.03;;;14.78;61.00
25759;BME280;13604;52.496;13.456;2023-05-02T09:36:50;101551.09;;;14.99;60.81
25759;BME280;13604;52.496;13.456;2023-05-02T09:39:20;101558.78;;;14.73;61.72
25759;BME280;13604;52.496;13.456;2023-05-02T09:41:47;101536.59;;;14.24;63.23
25759;BME280;13604;52.496;13.456;2023-05-02T09:44:23;101533.91;;;14.02;64.13
25759;BME280;13604;52.496;13.456;2023-05-02T09:46:53;101539.44;;;13.69;65.33
25759;BME280;13604;52.496;13.456;2023-05-02T09:49:43;101560.44;;;13.51;67.26
25759;BME280;13604;52.496;13.456;2023-05-02T09:52:16;101570.75;;;13.48;68.04
25759;BME280;13604;52.496;13.456;2023-05-02T09:54:41;101576.41;;;13.57;68.57
25759;BME280;13604;52.496;13.456;2023-05-02T09:57:07;101540.38;;;13.51;68.09
25759;BME280;13604;52.496;13.456;2023-05-02T09:59:32;101580.97;;;13.80;67.36
25759;BME280;13604;52.496;13.456;2023-05-02T10:01:59;101542.78;;;13.66;66.19
25759;BME280;13604;52.496;13.456;2023-05-02T10:04:26;101582.13;;;14.07;66.00
25759;BME280;13604;52.496;13.456;2023-05-02T10:06:53;101572.03;;;14.35;64.49
25759;BME280;13604;52.496;13.456;2023-05-02T10:09:19;101589.34;;;14.72;63.42
25759;BME280;13604;52.496;13.456;2023-05-02T10:11:46;101588.31;;;14.90;61.80
25759;BME280;13604;52.496;13.456;2023-05-02T10:14:13;101572.28;;;14.82;61.43
25759;BME280;13604;52.496;13.456;2023-05-02T10:16:52;101565.03;;;15.20;60.95
25759;BME280;13604;52.496;13.456;2023-05-02T10:19:23;101589.38;;;15.39;59.95
25759;BME280;13604;52.496;13.456;2023-05-02T10:21:52;101591.28;;;15.20;60.52
25759;BME280;13604;52.496;13.456;2023-05-02T10:24:18;101484.47;;;14.30;60.69
25759;BME280;13604;52.496;13.456;2023-05-02T10:26:45;101571.50;;;14.23;62.96
25759;BME280;13604;52.496;13.456;2023-05-02T10:29:11;101594.44;;;14.29;63.73
25759;BME280;13604;52.496;13.456;2023-05-02T10:31:36;101611.03;;;14.08;65.33
25759;BME280;13604;52.496;13.456;2023-05-02T10:34:03;101612.91;;;13.54;67.51
25759;BME280;13604;52.496;13.456;2023-05-02T10:36:30;101624.22;;;13.35;69.17
25759;BME280;13604;52.496;13.456;2023-05-02T10:38:57;101606.72;;;13.16;70.49
25759;BME280;13604;52.496;13.456;2023-05-02T10:41:28;101626.06;;;13.55;69.70
25759;BME280;13604;52.496;13.456;2023-05-02T10:43:55;101638.75;;;14.23;67.38
25759;BME280;13604;52.496;13.456;2023-05-02T10:46:37;101620.88;;;14.54;65.34
25759;BME280;13604;52.496;13.456;2023-05-02T10:49:11;101636.50;;;13.73;67.12
25759;BME280;13604;52.496;13.456;2023-05-02T10:51:39;101647.88;;;13.02;69.80
25759;BME280;13604;52.496;13.456;2023-05-02T10:59:40;101670.03;;;12.92;71.08
25759;BME280;13604;52.496;13.456;2023-05-02T11:07:29;101690.75;;;12.71;71.75
25759;BME280;13604;52.496;13.456;2023-05-02T11:12:52;101670.66;;;12.36;72.63
25759;BME280;13604;52.496;13.456;2023-05-02T11:18:04;101714.88;;;12.65;71.17
25759;BME280;13604;52.496;13.456;2023-05-02T11:20:34;101696.22;;;11.93;72.72
25759;BME280;13604;52.496;13.456;2023-05-02T11:25:42;101699.47;;;11.58;75.08
25759;BME280;13604;52.496;13.456;2023-05-02T11:31:52;101728.19;;;11.89;72.46
25759;BME280;13604;52.496;13.456;2023-05-02T11:33:59;101708.72;;;13.16;68.71
25759;BME280;13604;52.496;13.456;2023-05-02T11:36:31;101687.88;;;14.28;62.95
25759;BME280;13604;52.496;13.456;2023-05-02T11:39:00;101694.34;;;15.39;56.70
25759;BME280;13604;52.496;13.456;2023-05-02T11:41:41;101684.59;;;15.57;55.29
25759;BME280;13604;52.496;13.456;2023-05-02T11:44:06;101749.06;;;15.93;55.07
25759;BME280;13604;52.496;13.456;2023-05-02T11:46:32;101701.38;;;14.57;54.68
25759;BME280;13604;52.496;13.456;2023-05-02T11:49:00;101643.63;;;13.40;57.24
25759;BME280;13604;52.496;13.456;2023-05-02T11:51:26;101746.72;;;13.43;58.00
25759;BME280;13604;52.496;13.456;2023-05-02T11:53:51;101718.47;;;13.36;57.74
25759;BME280;13604;52.496;13.456;2023-05-02T11:56:22;101697.38;;;13.69;56.34
25759;BME280;13604;52.496;13.456;2023-05-02T11:58:57;101750.00;;;14.50;55.05
25759;BME280;13604;52.496;13.456;2023-05-02T12:01:23;101740.91;;;14.23;54.66
25759;BME280;13604;52.496;13.456;2023-05-02T12:03:48;101756.84;;;13.90;54.92
25759;BME280;13604;52.496;13.456;2023-05-02T12:06:18;101699.81;;;13.30;55.94
25759;BME280;13604;52.496;13.456;2023-05-02T12:08:43;101789.16;;;13.72;54.79
25759;BME280;13604;52.496;13.456;2023-05-02T12:11:12;101720.16;;;13.18;55.46
25759;BME280;13604;52.496;13.456;2023-05-02T12:13:47;101770.88;;;13.38;55.64
25759;BME280;13604;52.496;13.456;2023-05-02T12:16:12;101743.53;;;12.64;56.66
25759;BME280;13604;52.496;13.456;2023-05-02T12:18:38;101603.75;;;11.57;57.11
25759;BME280;13604;52.496;13.456;2023-05-02T12:21:04;101661.34;;;11.76;57.50
25759;BME280;13604;52.496;13.456;2023-05-02T12:23:29;101755.13;;;12.36;57.77
25759;BME280;13604;52.496;13.456;2023-05-02T12:25:57;101727.34;;;12.38;57.13
25759;BME280;13604;52.496;13.456;2023-05-02T12:28:22;101733.50;;;12.39;56.90
25759;BME280;13604;52.496;13.456;2023-05-02T12:30:48;101785.50;;;12.67;56.98
25759;BME280;13604;52.496;13.456;2023-05-02T12:33:14;101754.88;;;12.48;57.45
25759;BME280;13604;52.496;13.456;2023-05-02T12:35:41;101796.28;;;12.89;56.68
25759;BME280;13604;52.496;13.456;2023-05-02T12:38:08;101764.25;;;12.77;56.39
25759;BME280;13604;52.496;13.456;2023-05-02T12:40:34;101799.13;;;13.45;55.69
25759;BME280;13604;52.496;13.456;2023-05-02T12:43:01;101782.25;;;13.92;53.72
25759;BME280;13604;52.496;13.456;2023-05-02T12:45:32;101712.41;;;13.73;53.16
25759;BME280;13604;52.496;13.456;2023-05-02T12:48:00;101792.19;;;14.75;51.31
25759;BME280;13604;52.496;13.456;2023-05-02T12:50:37;101751.16;;;15.58;49.26
25759;BME280;13604;52.496;13.456;2023-05-02T12:53:03;101776.50;;;16.46;46.22
25759;BME280;13604;52.496;13.456;2023-05-02T12:55:32;101751.31;;;16.29;46.24
25759;BME280;13604;52.496;13.456;2023-05-02T12:58:01;101745.22;;;17.28;43.85
25759;BME280;13604;52.496;13.456;2023-05-02T13:00:31;101796.78;;;19.21;41.28
25759;BME280;13604;52.496;13.456;2023-05-02T13:02:57;101763.94;;;19.11;39.68
25759;BME280;13604;52.496;13.456;2023-05-02T13:05:22;101790.88;;;18.09;41.86
25759;BME280;13604;52.496;13.456;2023-05-02T13:07:48;101783.16;;;17.60;42.26
25759;BME280;13604;52.496;13.456;2023-05-02T13:10:13;101810.91;;;17.76;42.48
25759;BME280;13604;52.496;13.456;2023-05-02T13:12:41;101784.59;;;16.99;43.59
25759;BME280;13604;52.496;13.456;2023-05-02T13:15:07;101699.66;;;16.53;42.95